Morgan, Vermont
Current Conditions -  °F | °C
As of 10:35 PM on Friday 28 Nov 2014 (Local Time) from KEFK Reporting Station
Overcast Overcast  
Wind Chill: 18°   Ceiling: 3900
Heat Index: 18°   Visibility: 10mi
Dew Point: 13°   Wind: 0mph
Humidity: 81%   Direction: NA
Pressure: 30.15"   Gusts: NA
Location:  44.91°N, 72.01°W
Report Text: KEFK 290335Z AUTO 00000KT 10SM SCT030 OVC039 M08/M11 A3015 RMK AO2 T10801107
Loading
Personal Weather Stations






























Interactive Weather Map New forecast layout! Learn more

10-Day Weather Forecast

Advertisements
Track Severe Weather on mobile